sensor_id;sensor_type;location;lat;lon;timestamp;pressure;altitude;pressure_sealevel;temperature;humidity
60719;BME280;46567;51.660;5.824;2022-10-16T00:08:12;100950.0;;;14.0;91.0
60719;BME280;46567;51.660;5.824;2022-10-16T00:18:33;100940.0;;;14.0;91.0
60719;BME280;46567;51.660;5.824;2022-10-16T00:38:09;100950.0;;;14.1;91.5
60719;BME280;46567;51.660;5.824;2022-10-16T00:48:33;100940.0;;;14.0;91.5
60719;BME280;46567;51.660;5.824;2022-10-16T00:58:09;100950.0;;;14.0;91.5
60719;BME280;46567;51.660;5.824;2022-10-16T01:08:43;100950.0;;;14.0;91.5
60719;BME280;46567;51.660;5.824;2022-10-16T01:38:14;100950.0;;;14.0;91.5
60719;BME280;46567;51.660;5.824;2022-10-16T01:48:11;100940.0;;;14.1;92.0
60719;BME280;46567;51.660;5.824;2022-10-16T01:58:09;100950.0;;;14.1;92.0
60719;BME280;46567;51.660;5.824;2022-10-16T02:08:35;100950.0;;;14.2;92.0
60719;BME280;46567;51.660;5.824;2022-10-16T02:18:09;100960.0;;;14.3;92.0
60719;BME280;46567;51.660;5.824;2022-10-16T02:28:12;100970.0;;;14.4;91.5
60719;BME280;46567;51.660;5.824;2022-10-16T02:38:58;100950.0;;;14.4;91.5
60719;BME280;46567;51.660;5.824;2022-10-16T02:48:09;100950.0;;;14.3;91.5
60719;BME280;46567;51.660;5.824;2022-10-16T02:58:33;100950.0;;;14.2;91.5
60719;BME280;46567;51.660;5.824;2022-10-16T03:08:09;100940.0;;;14.1;91.5
60719;BME280;46567;51.660;5.824;2022-10-16T03:18:58;100960.0;;;14.1;91.5
60719;BME280;46567;51.660;5.824;2022-10-16T03:28:33;100960.0;;;14.0;91.5
60719;BME280;46567;51.660;5.824;2022-10-16T03:38:09;100980.0;;;13.9;91.5
60719;BME280;46567;51.660;5.824;2022-10-16T03:48:09;100990.0;;;13.9;92.0
60719;BME280;46567;51.660;5.824;2022-10-16T03:58:09;101000.0;;;13.8;92.0
60719;BME280;46567;51.660;5.824;2022-10-16T04:18:33;101000.0;;;13.7;92.0
60719;BME280;46567;51.660;5.824;2022-10-16T04:28:09;101010.0;;;13.8;92.5
60719;BME280;46567;51.660;5.824;2022-10-16T04:38:09;101020.0;;;13.8;92.5
60719;BME280;46567;51.660;5.824;2022-10-16T04:48:09;101030.0;;;13.8;92.5
60719;BME280;46567;51.660;5.824;2022-10-16T04:58:09;101020.0;;;13.8;92.5
60719;BME280;46567;51.660;5.824;2022-10-16T05:08:09;101050.0;;;13.8;92.5
60719;BME280;46567;51.660;5.824;2022-10-16T05:18:09;101050.0;;;13.8;92.5
60719;BME280;46567;51.660;5.824;2022-10-16T05:28:09;101070.0;;;13.8;93.0
60719;BME280;46567;51.660;5.824;2022-10-16T05:38:09;101080.0;;;13.7;93.0
60719;BME280;46567;51.660;5.824;2022-10-16T05:48:33;101100.0;;;13.7;93.0
60719;BME280;46567;51.660;5.824;2022-10-16T05:58:35;101130.0;;;13.7;93.0
60719;BME280;46567;51.660;5.824;2022-10-16T06:08:09;101140.0;;;13.7;93.5
60719;BME280;46567;51.660;5.824;2022-10-16T06:18:09;101160.0;;;13.6;93.5
60719;BME280;46567;51.660;5.824;2022-10-16T06:28:09;101170.0;;;13.6;93.5
60719;BME280;46567;51.660;5.824;2022-10-16T06:38:09;101190.0;;;13.6;93.5
60719;BME280;46567;51.660;5.824;2022-10-16T06:48:33;101210.0;;;13.6;94.0
60719;BME280;46567;51.660;5.824;2022-10-16T06:58:09;101210.0;;;13.7;94.0
60719;BME280;46567;51.660;5.824;2022-10-16T07:18:34;101250.0;;;14.0;94.0
60719;BME280;46567;51.660;5.824;2022-10-16T07:38:09;101280.0;;;14.5;93.5
60719;BME280;46567;51.660;5.824;2022-10-16T07:48:09;101300.0;;;14.6;93.5
60719;BME280;46567;51.660;5.824;2022-10-16T07:58:09;101310.0;;;14.8;93.5
60719;BME280;46567;51.660;5.824;2022-10-16T08:28:11;101350.0;;;15.5;92.5
60719;BME280;46567;51.660;5.824;2022-10-16T08:38:33;101370.0;;;15.7;92.0
60719;BME280;46567;51.660;5.824;2022-10-16T08:48:43;101380.0;;;16.0;91.0
60719;BME280;46567;51.660;5.824;2022-10-16T08:58:11;101390.0;;;16.3;90.5
60719;BME280;46567;51.660;5.824;2022-10-16T09:08:12;101400.0;;;16.7;89.5
60719;BME280;46567;51.660;5.824;2022-10-16T09:18:14;101410.0;;;17.0;89.0
60719;BME280;46567;51.660;5.824;2022-10-16T09:28:33;101420.0;;;17.3;87.5
60719;BME280;46567;51.660;5.824;2022-10-16T09:38:35;101420.0;;;17.4;87.5
60719;BME280;46567;51.660;5.824;2022-10-16T09:48:10;101440.0;;;17.7;86.0
60719;BME280;46567;51.660;5.824;2022-10-16T09:58:13;101440.0;;;17.9;85.5
60719;BME280;46567;51.660;5.824;2022-10-16T10:08:15;101440.0;;;18.2;84.5
60719;BME280;46567;51.660;5.824;2022-10-16T10:18:16;101440.0;;;18.5;83.0
60719;BME280;46567;51.660;5.824;2022-10-16T10:28:46;101450.0;;;18.6;82.5
60719;BME280;46567;51.660;5.824;2022-10-16T10:38:36;101470.0;;;18.7;81.5
60719;BME280;46567;51.660;5.824;2022-10-16T10:48:33;101480.0;;;18.7;79.5
60719;BME280;46567;51.660;5.824;2022-10-16T10:58:53;101480.0;;;18.7;78.5
60719;BME280;46567;51.660;5.824;2022-10-16T11:08:13;101480.0;;;19.0;78.5
60719;BME280;46567;51.660;5.824;2022-10-16T11:18:15;101490.0;;;19.2;77.5
60719;BME280;46567;51.660;5.824;2022-10-16T11:28:19;101490.0;;;19.5;76.0
60719;BME280;46567;51.660;5.824;2022-10-16T11:38:14;101480.0;;;19.6;74.0
60719;BME280;46567;51.660;5.824;2022-10-16T11:48:31;101490.0;;;19.5;73.0
60719;BME280;46567;51.660;5.824;2022-10-16T11:58:22;101510.0;;;19.2;73.0
60719;BME280;46567;51.660;5.824;2022-10-16T12:08:13;101510.0;;;19.0;73.0
60719;BME280;46567;51.660;5.824;2022-10-16T12:18:22;101500.0;;;19.1;73.0
60719;BME280;46567;51.660;5.824;2022-10-16T12:28:19;101530.0;;;19.2;73.5
60719;BME280;46567;51.660;5.824;2022-10-16T12:38:15;101520.0;;;19.3;73.5
60719;BME280;46567;51.660;5.824;2022-10-16T12:48:19;101520.0;;;19.5;73.0
60719;BME280;46567;51.660;5.824;2022-10-16T12:59:09;101510.0;;;19.7;71.5
60719;BME280;46567;51.660;5.824;2022-10-16T13:09:19;101510.0;;;20.0;72.0
60719;BME280;46567;51.660;5.824;2022-10-16T13:19:38;101520.0;;;20.2;71.0
60719;BME280;46567;51.660;5.824;2022-10-16T13:28:12;101520.0;;;20.2;70.5
60719;BME280;46567;51.660;5.824;2022-10-16T13:38:14;101510.0;;;20.1;70.0
60719;BME280;46567;51.660;5.824;2022-10-16T13:48:10;101520.0;;;20.0;70.5
60719;BME280;46567;51.660;5.824;2022-10-16T13:58:13;101530.0;;;19.9;70.5
60719;BME280;46567;51.660;5.824;2022-10-16T14:08:10;101540.0;;;19.9;70.5
60719;BME280;46567;51.660;5.824;2022-10-16T14:18:19;101530.0;;;19.9;70.5
60719;BME280;46567;51.660;5.824;2022-10-16T14:28:16;101530.0;;;20.0;70.5
60719;BME280;46567;51.660;5.824;2022-10-16T14:38:18;101530.0;;;20.0;70.0
60719;BME280;46567;51.660;5.824;2022-10-16T14:48:16;101540.0;;;20.0;70.0
60719;BME280;46567;51.660;5.824;2022-10-16T15:08:09;101520.0;;;19.9;70.5
60719;BME280;46567;51.660;5.824;2022-10-16T15:18:09;101510.0;;;19.8;69.5
60719;BME280;46567;51.660;5.824;2022-10-16T15:28:10;101530.0;;;19.7;70.0
60719;BME280;46567;51.660;5.824;2022-10-16T15:38:11;101520.0;;;19.5;70.0
60719;BME280;46567;51.660;5.824;2022-10-16T15:48:10;101540.0;;;19.4;70.5
60719;BME280;46567;51.660;5.824;2022-10-16T15:58:09;101530.0;;;19.2;71.5
60719;BME280;46567;51.660;5.824;2022-10-16T16:08:09;101540.0;;;19.1;72.0
60719;BME280;46567;51.660;5.824;2022-10-16T16:18:09;101530.0;;;18.9;73.0
60719;BME280;46567;51.660;5.824;2022-10-16T16:28:09;101510.0;;;18.6;73.5
60719;BME280;46567;51.660;5.824;2022-10-16T16:38:09;101530.0;;;18.4;74.5
60719;BME280;46567;51.660;5.824;2022-10-16T16:48:09;101530.0;;;18.1;75.0
60719;BME280;46567;51.660;5.824;2022-10-16T16:58:09;101540.0;;;17.9;76.0
60719;BME280;46567;51.660;5.824;2022-10-16T17:08:09;101550.0;;;17.7;76.5
60719;BME280;46567;51.660;5.824;2022-10-16T17:18:09;101560.0;;;17.6;77.0
60719;BME280;46567;51.660;5.824;2022-10-16T17:28:10;101570.0;;;17.5;77.0
60719;BME280;46567;51.660;5.824;2022-10-16T17:38:10;101550.0;;;17.4;77.5
60719;BME280;46567;51.660;5.824;2022-10-16T17:48:09;101550.0;;;17.2;78.0
60719;BME280;46567;51.660;5.824;2022-10-16T17:58:09;101540.0;;;17.2;78.0
60719;BME280;46567;51.660;5.824;2022-10-16T18:08:09;101550.0;;;17.1;78.5
60719;BME280;46567;51.660;5.824;2022-10-16T18:18:09;101560.0;;;17.0;78.5
60719;BME280;46567;51.660;5.824;2022-10-16T18:48:09;101650.0;;;16.8;80.0
60719;BME280;46567;51.660;5.824;2022-10-16T19:08:09;101660.0;;;16.7;81.5
60719;BME280;46567;51.660;5.824;2022-10-16T19:18:34;101630.0;;;16.6;82.0
60719;BME280;46567;51.660;5.824;2022-10-16T19:28:09;101630.0;;;16.3;83.0
60719;BME280;46567;51.660;5.824;2022-10-16T19:38:09;101620.0;;;16.3;83.5
60719;BME280;46567;51.660;5.824;2022-10-16T19:48:34;101630.0;;;16.3;84.0
60719;BME280;46567;51.660;5.824;2022-10-16T19:58:09;101640.0;;;16.3;84.5
60719;BME280;46567;51.660;5.824;2022-10-16T20:18:09;101660.0;;;16.2;85.0
60719;BME280;46567;51.660;5.824;2022-10-16T20:28:14;101630.0;;;16.1;85.5
60719;BME280;46567;51.660;5.824;2022-10-16T20:38:10;101620.0;;;16.0;85.5
60719;BME280;46567;51.660;5.824;2022-10-16T20:48:11;101650.0;;;16.0;86.0
60719;BME280;46567;51.660;5.824;2022-10-16T20:58:09;101640.0;;;16.0;86.0
60719;BME280;46567;51.660;5.824;2022-10-16T21:08:09;101620.0;;;15.9;86.5
60719;BME280;46567;51.660;5.824;2022-10-16T21:18:34;101610.0;;;15.8;86.5
60719;BME280;46567;51.660;5.824;2022-10-16T21:28:34;101590.0;;;15.7;86.5
60719;BME280;46567;51.660;5.824;2022-10-16T21:38:09;101600.0;;;15.6;87.0
60719;BME280;46567;51.660;5.824;2022-10-16T21:48:09;101600.0;;;15.5;87.5
60719;BME280;46567;51.660;5.824;2022-10-16T21:58:09;101590.0;;;15.4;87.5
60719;BME280;46567;51.660;5.824;2022-10-16T22:08:35;101590.0;;;15.3;87.5
60719;BME280;46567;51.660;5.824;2022-10-16T22:18:34;101590.0;;;15.2;87.5
60719;BME280;46567;51.660;5.824;2022-10-16T22:28:09;101580.0;;;15.1;88.0
60719;BME280;46567;51.660;5.824;2022-10-16T22:38:35;101580.0;;;15.0;88.5
60719;BME280;46567;51.660;5.824;2022-10-16T22:48:09;101590.0;;;15.0;89.0
60719;BME280;46567;51.660;5.824;2022-10-16T22:58:09;101600.0;;;15.1;89.5
60719;BME280;46567;51.660;5.824;2022-10-16T23:18:10;101580.0;;;15.2;89.5
60719;BME280;46567;51.660;5.824;2022-10-16T23:28:09;101570.0;;;15.1;90.0
60719;BME280;46567;51.660;5.824;2022-10-16T23:38:09;101560.0;;;15.1;91.0
60719;BME280;46567;51.660;5.824;2022-10-16T23:58:09;101540.0;;;15.1;92.0
